Recent Download Speed Test Results

 
 
Results over 50Mbps are highlighted.
Time arrow down       Size    Speed   User ConnectID Provider TID
Sun Feb 17 2019 @ 6:49:40 pm Dallas, TX Android Detected US arrow 6.3 MB 13.91 Mbps 1.74 MB/s22192276414Earthlink historybYi~~79tM
Sun Feb 17 2019 @ 6:49:39 pm New York, NY US arrow 2.4 MB 1.49 Mbps 186 kB/s99795102191Verizon Internet historydqZEhbqXW
Sun Feb 17 2019 @ 6:49:36 pm Dallas, TX US arrow 43.1 MB 11.87 Mbps 1.48 MB/s90066829840Windstream historygIhRXVOqX
Sun Feb 17 2019 @ 6:49:35 pm London, GB Android Detected LY arrow 1.3 MB 1.71 Mbps 214 kB/s37832279085Libyan Telecom And historyw8EtsNvO1
Sun Feb 17 2019 @ 6:49:32 pm London, GB Location 1 GB arrow 37.6 MB 25.27 Mbps 3.16 MB/sAshprington7988748158087Bt history9Ezppi5Hp
Sun Feb 17 2019 @ 6:49:30 pm Dallas, TX Android Detected US arrow 19.2 MB 9.77 Mbps 1.22 MB/s22192276414Earthlink history44rbbHLHr
Sun Feb 17 2019 @ 6:49:27 pm Dallas, TX CA arrow 131.8 MB 96.15 Mbps 12.02 MB/s1596748120288Rogers Cable historyk8Fifzdn0
Sun Feb 17 2019 @ 6:49:25 pm Dallas, TX Android Detected US arrow 19.1 MB 8.52 Mbps 1.06 MB/s22192276414Earthlink historyLmnnrtAix
Sun Feb 17 2019 @ 6:49:24 pm Dallas, TX Android Detected US arrow 256 kB 410 kbps 51 kB/s22192276414Earthlink historyudVDmjUiy
Sun Feb 17 2019 @ 6:49:24 pm Dallas, TX Android Detected US arrow 6.2 MB 5.91 Mbps 738 kB/s22192276414Earthlink historyv7GoPkk8z
Sun Feb 17 2019 @ 6:49:22 pm London, GB HR arrow 31.9 MB 7.45 Mbps 931 kB/s8541076736776Hrvatski Telekom historyMoRzMRbc1
Sun Feb 17 2019 @ 6:49:18 pm London, GB GB arrow 126.5 MB 109.87 Mbps 13.73 MB/s79142756150Virgin Media history98QSNDZUl
Sun Feb 17 2019 @ 6:49:17 pm New York, NY US arrow 61 MB 62.8 Mbps 7.85 MB/s4322129943Spectrum historyGx-PaZXrz
Sun Feb 17 2019 @ 6:49:16 pm Sydney, AU AU arrow 37.9 MB 30.37 Mbps 3.8 MB/sheavy_sigh1010777862467Optus history8RC41MnyV
Sun Feb 17 2019 @ 6:49:11 pm Dallas, TX US arrow 36.8 MB 24.52 Mbps 3.07 MB/s550243495925Cox Communications historyu3RXmtqOY
Sun Feb 17 2019 @ 6:49:11 pm Dallas, TX Android Detected US arrow 43.1 MB 72.06 Mbps 9.01 MB/s1202300256166Xinet historyf-eBhqdO_
Sun Feb 17 2019 @ 6:49:06 pm London, GB Android Detected MA arrow 25 MB 9.25 Mbps 1.16 MB/s964355114988Maroc Telecom historyWL~eXOCzu
Sun Feb 17 2019 @ 6:49:05 pm London, GB GB arrow 44.4 MB 41.69 Mbps 5.21 MB/s7540362764Virgin Media history8kg2QSzMz
Sun Feb 17 2019 @ 6:49:00 pm Tokyo, JP Android Detected PH arrow 200 MB 43.67 Mbps 5.46 MB/s16062757890208Smart Broadband historyzjIQQf12r
Sun Feb 17 2019 @ 6:48:57 pm Dallas, TX US arrow 18.8 MB 10.32 Mbps 1.29 MB/sNightHawk2k18634325629660Jab Wireless historyxvwQ8ii_B
Sun Feb 17 2019 @ 6:48:51 pm Dallas, TX Android Detected US arrow 12.4 MB 18.39 Mbps 2.3 MB/s22192276414Earthlink historyo7ZEtl8G8
Sun Feb 17 2019 @ 6:48:50 pm London, GB IT arrow 18.8 MB 5.8 Mbps 725 kB/s3413891722613Wind Tre historyy-C2wVmGZ
Sun Feb 17 2019 @ 6:48:49 pm Bangalore, IN Android Detected IN arrow 6.3 MB 12.73 Mbps 1.59 MB/s18540142407521Excitel historyRYmh6Icu0
Sun Feb 17 2019 @ 6:48:49 pm Dallas, TX SE arrow 6.2 MB 8.76 Mbps 1.09 MB/s1799203668327Fiber Grid Inc historyK5mkVgwUw
Sun Feb 17 2019 @ 6:48:48 pm San Francisco, CA US arrow 64.9 MB 40.05 Mbps 5.01 MB/s43464638989Spectrum historyykTk-Cltw
Sun Feb 17 2019 @ 6:48:47 pm Frankfurt, DE Android Detected NL arrow 6.3 MB 13.96 Mbps 1.75 MB/s1633511182519Digital Ocean historyLakgobYw5
Sun Feb 17 2019 @ 6:48:47 pm Dallas, TX Android Detected US arrow 5.3 MB 12.58 Mbps 1.57 MB/s22192276414Earthlink historyoMeJY0d4H
Sun Feb 17 2019 @ 6:48:46 pm Bangalore, IN IN arrow 43 MB 20.96 Mbps 2.62 MB/s1862597591391You Telecom India historyey~LFEbgP
Sun Feb 17 2019 @ 6:48:40 pm Dallas, TX Android Detected US arrow 18.9 MB 22.1 Mbps 2.76 MB/s22192276414Earthlink historyJH2TNf~s5
Sun Feb 17 2019 @ 6:48:40 pm Dallas, TX Android Detected VE arrow 256 kB 196 kbps 25 kB/s1749452694330Cantv historyBtQ-zf_aj
Sun Feb 17 2019 @ 6:48:40 pm Frankfurt, DE FI arrow 89.6 MB 13.97 Mbps 1.75 MB/s550248292426Dna Oyj historyYPZnUiCQe
Sun Feb 17 2019 @ 6:48:36 pm London, GB AT arrow 200 MB 40.08 Mbps 5.01 MB/s1777343808017Telekom Austria historyVcGzKylpS
Sun Feb 17 2019 @ 6:48:36 pm Dallas, TX US arrow 60.1 MB 28.22 Mbps 3.53 MB/s6621890447117Cox Communications historymza0cZa8L
Sun Feb 17 2019 @ 6:48:33 pm Frankfurt, DE CZ arrow 6.3 MB 2.97 Mbps 371 kB/sJenda01570412043714A Net Liberec Sro historylMCQ8pM5E
Sun Feb 17 2019 @ 6:48:29 pm New York, NY US arrow 1.3 MB 1.5 Mbps 188 kB/s99795102191Verizon Internet history4MljKvFbJ
Sun Feb 17 2019 @ 6:48:28 pm Dallas, TX Android Detected US arrow 18.1 MB 27.58 Mbps 3.45 MB/s22192276414Earthlink historyv25VQ1CN4
Sun Feb 17 2019 @ 6:48:27 pm Frankfurt, DE BG arrow 128.8 MB 82.93 Mbps 10.37 MB/sCimcoop Holding1954855246923A1 Bulgaria historyjJA5brJai
Sun Feb 17 2019 @ 6:48:25 pm Frankfurt, DE PL arrow 1.3 MB 1.06 Mbps 133 kB/s781304221515Sileman Sp Z Oo historypg-cS3A0m
Sun Feb 17 2019 @ 6:48:23 pm San Francisco, CA US arrow 64.9 MB 41.97 Mbps 5.25 MB/s43464638989Spectrum historyYxojZzQkE
Sun Feb 17 2019 @ 6:48:21 pm Dallas, TX US arrow 256 kB 75 kbps 9 kB/stimman34689342175760Centurylink history4b96k0~sQ
Sun Feb 17 2019 @ 6:48:18 pm London, GB ZA arrow 6.3 MB 3.12 Mbps 391 kB/s15502447694Afrihost history2m6x9XqaG
Sun Feb 17 2019 @ 6:48:17 pm Dallas, TX Home US arrow 200 MB 27.66 Mbps 3.46 MB/sNickfost22295556166Time Warner Cable historyYuzXH_Ibe
Sun Feb 17 2019 @ 6:48:16 pm Dallas, TX Android Detected US arrow 1.3 MB 919 kbps 115 kB/s22192276414Earthlink historyS7H-Os7Z6
Sun Feb 17 2019 @ 6:48:15 pm Dallas, TX Android Detected US arrow 19 MB 13.27 Mbps 1.66 MB/s22192276414Earthlink historyLwYbjzgbI
Sun Feb 17 2019 @ 6:48:14 pm Dallas, TX Android Detected US arrow 6.2 MB 4.12 Mbps 515 kB/s22192276414Earthlink historyzDWSVDT1N
Sun Feb 17 2019 @ 6:48:10 pm London, GB Location 2 FI arrow 6.3 MB 4.8 Mbps 600 kB/sMirekT1778433713831Yit Corporation historynXvqqXrUN
Sun Feb 17 2019 @ 6:48:08 pm New York, NY CA arrow 36.8 MB 36.2 Mbps 4.53 MB/s176355517822Tech Futures historyb59I7FYSF
Sun Feb 17 2019 @ 6:48:07 pm Dallas, TX US arrow 30.8 MB 9.65 Mbps 1.21 MB/s189084264196Digitalocean Llc historyy-HdeKpfg
Sun Feb 17 2019 @ 6:48:05 pm London, GB Android Detected SA arrow 256 kB 364 kbps 46 kB/s46862349754Mobily historypCtRgcaSs
Sun Feb 17 2019 @ 6:48:04 pm Dallas, TX US arrow 18.4 MB 16.79 Mbps 2.1 MB/s6892600216066Centurylink historyUHuiAps8w
  
Rendered in 0.120 seconds.
Speed Test Version 15.9
© 2019 TestMy Net LLC - TestMy.net - Terms & Privacy - Mobile